ADDS METAR Data INFO
IDs: Format: Raw Decoded Include TAF

Data at: 2009 UTC 19 Oct 2017

KIFP 191950Z 23005KT 10SM CLR 31/M07 A2977 RMK AO2
KIFP 191935Z 00000KT 10SM CLR 31/M07 A2977 RMK AO2
KIFP 191915Z 00000KT 10SM CLR 30/M06 A2979 RMK AO2
KIFP 191855Z VRB03KT 10SM CLR 30/M06 A2980 RMK AO2
KIFP 191835Z 30004KT 10SM CLR 28/M05 A2981 RMK AO2
KIFP 191815Z 00000KT 10SM CLR 27/M06 A2982 RMK AO2
KIFP 191755Z 00000KT 10SM CLR 26/M05 A2983 RMK AO2
KIFP 191735Z 00000KT 10SM CLR 25/M06 A2983 RMK AO2
KIFP 191715Z 19003KT 10SM CLR 24/M06 A2983 RMK AO2
KIFP 191655Z 20004KT 10SM CLR 24/M05 A2983 RMK AO2
KIFP 191635Z 00000KT 10SM CLR 23/M04 A2984 RMK AO2
KIFP 191615Z 00000KT 10SM CLR 22/M04 A2984 RMK AO2
KIFP 191555Z 00000KT 10SM CLR 21/M04 A2984 RMK AO2
KIFP 191535Z 00000KT 10SM CLR 20/M02 A2984 RMK AO2
KIFP 191515Z 00000KT 10SM CLR 20/M01 A2983 RMK AO2
KIFP 191455Z AUTO 00000KT 10SM CLR 18/M00 A2983 RMK AO2
KIFP 191435Z AUTO 00000KT 10SM CLR 19/M05 A2982 RMK AO2
KIFP 191415Z AUTO 00000KT 10SM CLR 18/M05 A2982 RMK AO2
KIFP 191355Z AUTO 00000KT 10SM CLR 17/M05 A2981 RMK AO2
KIFP 191335Z AUTO 00000KT 10SM CLR 18/M04 A2981 RMK AO2
KIFP 191315Z AUTO 00000KT 10SM CLR 18/M03 A2981 RMK AO2
KIFP 191255Z AUTO 00000KT 10SM CLR 19/M05 A2981 RMK AO2
KIFP 191235Z AUTO 00000KT 10SM CLR 19/M05 A2981 RMK AO2
KIFP 191215Z AUTO 00000KT 10SM CLR 18/M05 A2981 RMK AO2
KIFP 191155Z AUTO 00000KT 10SM CLR 19/M05 A2980 RMK AO2
KIFP 191135Z AUTO 00000KT 10SM CLR 19/M05 A2980 RMK AO2
KIFP 191115Z AUTO 00000KT 10SM CLR 19/M05 A2981 RMK AO2
KIFP 191055Z AUTO 00000KT 10SM CLR 20/M04 A2980 RMK AO2
KIFP 191035Z AUTO 00000KT 10SM CLR 20/M03 A2980 RMK AO2
KIFP 191015Z AUTO 07004KT 10SM CLR 21/M06 A2980 RMK AO2
KIFP 190955Z AUTO 00000KT 10SM CLR 21/M06 A2981 RMK AO2
KIFP 190935Z AUTO 00000KT 10SM CLR 20/M06 A2981 RMK AO2
KIFP 190915Z AUTO 00000KT 10SM CLR 21/M05 A2981 RMK AO2
KIFP 190855Z AUTO 00000KT 10SM CLR 21/M05 A2982 RMK AO2
KIFP 190835Z AUTO 00000KT 10SM CLR 22/M04 A2982 RMK AO2
KIFP 190815Z AUTO 05004KT 10SM CLR 22/M03 A2982 RMK AO2
KIFP 190755Z AUTO 07004KT 10SM CLR 22/M05 A2982 RMK AO2
KIFP 190735Z AUTO 00000KT 10SM SCT120 22/M03 A2982 RMK AO2
KIFP 190715Z AUTO 00000KT 10SM FEW120 23/M03 A2983 RMK AO2
KIFP 190655Z AUTO 00000KT 10SM CLR 24/M02 A2983 RMK AO2
KIFP 190635Z AUTO 00000KT 10SM CLR 24/M03 A2983 RMK AO2
KIFP 190615Z AUTO 35004KT 10SM CLR 25/M02 A2983 RMK AO2
KIFP 190555Z AUTO 34003KT 10SM CLR 25/M02 A2983 RMK AO2
KIFP 190535Z AUTO 35005KT 10SM CLR 25/M01 A2983 RMK AO2
KIFP 190515Z AUTO 35003KT 10SM CLR 25/M02 A2983 RMK AO2
KIFP 190455Z AUTO 36004KT 10SM CLR 26/M02 A2984 RMK AO2
KIFP 190435Z AUTO 36004KT 10SM CLR 26/M03 A2984 RMK AO2
KIFP 190415Z AUTO 33004KT 10SM CLR 27/M03 A2984 RMK AO2
KIFP 190355Z AUTO 02006KT 10SM CLR 27/M08 A2984 RMK AO2
KIFP 190335Z AUTO 03009KT 10SM CLR 28/M08 A2984 RMK AO2
KIFP 190315Z AUTO 04007KT 10SM FEW120 28/M08 A2985 RMK AO2
KIFP 190255Z AUTO 03006KT 10SM FEW120 29/M09 A2985 RMK AO2
KIFP 190235Z AUTO 04009KT 10SM CLR 29/M09 A2985 RMK AO2
KIFP 190215Z AUTO 03010KT 10SM CLR 29/M09 A2985 RMK AO2
KIFP 190155Z AUTO 03008KT 10SM CLR 30/M09 A2985 RMK AO2
KIFP 190135Z AUTO 02009KT 10SM CLR 30/M09 A2985 RMK AO2
KIFP 190115Z AUTO 03009KT 10SM CLR 30/M09 A2984 RMK AO2
KIFP 190055Z 36008G14KT 10SM CLR 31/M10 A2985 RMK AO2
KIFP 190035Z 35010KT 10SM CLR 31/M10 A2984 RMK AO2
KIFP 190015Z 36010KT 10SM CLR 31/M09 A2985 RMK AO2
KIFP 182355Z 01012KT 10SM CLR 31/M09 A2985 RMK AO2
KIFP 182335Z 01013KT 10SM CLR 31/M09 A2985 RMK AO2
KIFP 182315Z 36011KT 10SM CLR 31/M10 A2986 RMK AO2
KIFP 182255Z 36013KT 10SM CLR 31/M09 A2987 RMK AO2
KIFP 182235Z 36014KT 10SM CLR 31/M11 A2987 RMK AO2
KIFP 182215Z 01015KT 10SM CLR 32/M10 A2987 RMK AO2
KIFP 182155Z 36013KT 10SM CLR 32/M10 A2987 RMK AO2
KIFP 182135Z 33011KT 10SM CLR 32/M08 A2988 RMK AO2
KIFP 182115Z 34011KT 10SM CLR 31/M09 A2989 RMK AO2
KIFP 182055Z 01011KT 10SM CLR 31/M10 A2990 RMK AO2
KIFP 182035Z 02010KT 10SM CLR 30/M10 A2991 RMK AO2
KIFP 182015Z 02010G15KT 10SM CLR 29/M10 A2992 RMK AO2
KIFP 181955Z 01014KT 10SM CLR 29/M10 A2992 RMK AO2
KIFP 181935Z 35011KT 10SM CLR 29/M10 A2994 RMK AO2
KIFP 181915Z 36011KT 10SM CLR 29/M09 A2995 RMK AO2
KIFP 181855Z 33009KT 10SM CLR 28/M07 A2995 RMK AO2
KIFP 181835Z 34009KT 10SM CLR 28/M08 A2996 RMK AO2
KIFP 181815Z 31005KT 10SM CLR 27/M07 A2997 RMK AO2
KIFP 181755Z 34007KT 10SM CLR 27/M07 A2997 RMK AO2
KIFP 181735Z 33007KT 10SM CLR 27/M06 A2997 RMK AO2
KIFP 181715Z 32007KT 10SM CLR 25/M03 A2997 RMK AO2
KIFP 181655Z 00000KT 10SM CLR 23/00 A2997 RMK AO2
KIFP 181635Z 24003KT 10SM CLR 23/00 A2997 RMK AO2
KIFP 181615Z 02004KT 10SM CLR 23/M02 A2996 RMK AO2
KIFP 181555Z 00000KT 10SM CLR 22/M02 A2997 RMK AO2
KIFP 181535Z 00000KT 10SM CLR 21/M02 A2996 RMK AO2
KIFP 181515Z 00000KT 10SM CLR 21/M04 A2996 RMK AO2
KIFP 181455Z AUTO 00000KT 10SM CLR 20/M04 A2995 RMK AO2
KIFP 181435Z AUTO 00000KT 10SM CLR 19/M05 A2995 RMK AO2
KIFP 181415Z AUTO 00000KT 10SM CLR 19/M04 A2994 RMK AO2
KIFP 181355Z AUTO 00000KT 10SM CLR 18/M07 A2993 RMK AO2
KIFP 181335Z AUTO 00000KT 10SM CLR 19/M04 A2993 RMK AO2
KIFP 181315Z AUTO 05003KT 10SM CLR 19/M05 A2993 RMK AO2
KIFP 181255Z AUTO 00000KT 10SM CLR 19/M01 A2993 RMK AO2
KIFP 181235Z AUTO 00000KT 10SM CLR 20/M08 A2993 RMK AO2
KIFP 181215Z AUTO 00000KT 10SM CLR 20/M08 A2992 RMK AO2
KIFP 181155Z AUTO 00000KT 10SM CLR 19/M06 A2991 RMK AO2
KIFP 181135Z AUTO 00000KT 10SM CLR 19/M06 A2991 RMK AO2
KIFP 181115Z AUTO 07004KT 10SM CLR 20/M09 A2990 RMK AO2
KIFP 181055Z AUTO 00000KT 10SM CLR 19/M08 A2990 RMK AO2
KIFP 181035Z AUTO 00000KT 10SM CLR 19/M01 A2990 RMK AO2
KIFP 181015Z AUTO 00000KT 10SM CLR 20/M09 A2990 RMK AO2
KIFP 180955Z AUTO 03004KT 10SM CLR 20/M04 A2991 RMK AO2
KIFP 180935Z AUTO 00000KT 10SM CLR 20/M08 A2992 RMK AO2
KIFP 180915Z AUTO 00000KT 10SM CLR 21/M05 A2991 RMK AO2
KIFP 180855Z AUTO 00000KT 10SM CLR 21/M08 A2991 RMK AO2
KIFP 180835Z AUTO 00000KT 10SM CLR 21/M08 A2991 RMK AO2
KIFP 180815Z AUTO 00000KT 10SM CLR 21/M08 A2991 RMK AO2